sensor_id;sensor_type;location;lat;lon;timestamp;P1;durP1;ratioP1;P2;durP2;ratioP2
67757;SDS011;54562;47.620;18.786;2023-02-12T00:00:24;20.20;;;11.20;;
67757;SDS011;54562;47.620;18.786;2023-02-12T00:03:32;17.40;;;8.70;;
67757;SDS011;54562;47.620;18.786;2023-02-12T00:06:41;20.40;;;10.70;;
67757;SDS011;54562;47.620;18.786;2023-02-12T00:09:48;21.80;;;10.50;;
67757;SDS011;54562;47.620;18.786;2023-02-12T00:12:57;19.80;;;10.50;;
67757;SDS011;54562;47.620;18.786;2023-02-12T00:16:07;20.60;;;10.70;;
67757;SDS011;54562;47.620;18.786;2023-02-12T00:19:17;21.20;;;11.10;;
67757;SDS011;54562;47.620;18.786;2023-02-12T00:22:25;20.70;;;10.50;;
67757;SDS011;54562;47.620;18.786;2023-02-12T00:25:33;19.10;;;10.70;;
67757;SDS011;54562;47.620;18.786;2023-02-12T00:28:45;22.60;;;10.70;;
67757;SDS011;54562;47.620;18.786;2023-02-12T00:31:53;19.40;;;10.30;;
67757;SDS011;54562;47.620;18.786;2023-02-12T00:35:01;21.60;;;9.20;;
67757;SDS011;54562;47.620;18.786;2023-02-12T00:38:09;16.40;;;8.50;;
67757;SDS011;54562;47.620;18.786;2023-02-12T00:41:17;19.50;;;11.50;;
67757;SDS011;54562;47.620;18.786;2023-02-12T00:44:25;17.50;;;9.30;;
67757;SDS011;54562;47.620;18.786;2023-02-12T00:47:33;20.50;;;11.00;;
67757;SDS011;54562;47.620;18.786;2023-02-12T00:50:42;21.40;;;10.30;;
67757;SDS011;54562;47.620;18.786;2023-02-12T00:53:51;19.20;;;11.20;;
67757;SDS011;54562;47.620;18.786;2023-02-12T00:56:59;21.70;;;10.90;;
67757;SDS011;54562;47.620;18.786;2023-02-12T01:00:10;15.60;;;7.90;;
67757;SDS011;54562;47.620;18.786;2023-02-12T01:03:20;20.50;;;11.60;;
67757;SDS011;54562;47.620;18.786;2023-02-12T01:06:28;19.00;;;10.60;;
67757;SDS011;54562;47.620;18.786;2023-02-12T01:09:38;19.70;;;11.00;;
67757;SDS011;54562;47.620;18.786;2023-02-12T01:12:46;20.50;;;11.60;;
67757;SDS011;54562;47.620;18.786;2023-02-12T01:16:04;21.70;;;11.40;;
67757;SDS011;54562;47.620;18.786;2023-02-12T01:19:16;21.90;;;11.40;;
67757;SDS011;54562;47.620;18.786;2023-02-12T01:22:24;18.20;;;10.90;;
67757;SDS011;54562;47.620;18.786;2023-02-12T01:25:32;18.90;;;10.10;;
67757;SDS011;54562;47.620;18.786;2023-02-12T01:28:41;23.00;;;11.50;;
67757;SDS011;54562;47.620;18.786;2023-02-12T01:31:54;19.80;;;11.10;;
67757;SDS011;54562;47.620;18.786;2023-02-12T01:35:03;19.40;;;10.60;;
67757;SDS011;54562;47.620;18.786;2023-02-12T01:38:13;20.40;;;11.60;;
67757;SDS011;54562;47.620;18.786;2023-02-12T01:41:23;20.10;;;10.60;;
67757;SDS011;54562;47.620;18.786;2023-02-12T01:44:33;19.40;;;11.20;;
67757;SDS011;54562;47.620;18.786;2023-02-12T01:47:43;18.00;;;9.70;;
67757;SDS011;54562;47.620;18.786;2023-02-12T01:50:53;18.60;;;10.50;;
67757;SDS011;54562;47.620;18.786;2023-02-12T01:54:05;18.40;;;9.30;;
67757;SDS011;54562;47.620;18.786;2023-02-12T01:57:17;18.00;;;10.00;;
67757;SDS011;54562;47.620;18.786;2023-02-12T02:00:26;19.20;;;9.90;;
67757;SDS011;54562;47.620;18.786;2023-02-12T02:03:34;19.60;;;10.10;;
67757;SDS011;54562;47.620;18.786;2023-02-12T02:06:47;20.20;;;11.10;;
67757;SDS011;54562;47.620;18.786;2023-02-12T02:09:59;25.90;;;11.60;;
67757;SDS011;54562;47.620;18.786;2023-02-12T02:13:09;22.40;;;12.20;;
67757;SDS011;54562;47.620;18.786;2023-02-12T02:16:35;15.70;;;7.80;;
67757;SDS011;54562;47.620;18.786;2023-02-12T02:24:29;17.90;;;9.30;;
67757;SDS011;54562;47.620;18.786;2023-02-12T02:28:02;16.70;;;8.00;;
67757;SDS011;54562;47.620;18.786;2023-02-12T02:31:21;13.60;;;7.90;;
67757;SDS011;54562;47.620;18.786;2023-02-12T02:34:40;23.50;;;11.70;;
67757;SDS011;54562;47.620;18.786;2023-02-12T02:38:02;23.70;;;12.10;;
67757;SDS011;54562;47.620;18.786;2023-02-12T02:41:29;18.60;;;9.70;;
67757;SDS011;54562;47.620;18.786;2023-02-12T02:44:45;17.90;;;8.20;;
67757;SDS011;54562;47.620;18.786;2023-02-12T02:48:01;19.40;;;9.40;;
67757;SDS011;54562;47.620;18.786;2023-02-12T02:51:15;17.90;;;8.80;;
67757;SDS011;54562;47.620;18.786;2023-02-12T02:54:31;18.30;;;9.60;;
67757;SDS011;54562;47.620;18.786;2023-02-12T02:57:48;18.60;;;8.80;;
67757;SDS011;54562;47.620;18.786;2023-02-12T03:01:03;21.60;;;11.30;;
67757;SDS011;54562;47.620;18.786;2023-02-12T03:04:18;19.80;;;10.30;;
67757;SDS011;54562;47.620;18.786;2023-02-12T03:07:33;18.90;;;9.40;;
67757;SDS011;54562;47.620;18.786;2023-02-12T03:10:48;23.00;;;11.10;;
67757;SDS011;54562;47.620;18.786;2023-02-12T03:14:05;20.60;;;9.30;;
67757;SDS011;54562;47.620;18.786;2023-02-12T03:17:20;21.80;;;12.10;;
67757;SDS011;54562;47.620;18.786;2023-02-12T03:20:36;19.20;;;8.80;;
67757;SDS011;54562;47.620;18.786;2023-02-12T03:23:54;16.00;;;7.70;;
67757;SDS011;54562;47.620;18.786;2023-02-12T03:27:11;17.30;;;9.20;;
67757;SDS011;54562;47.620;18.786;2023-02-12T03:30:23;16.80;;;8.50;;
67757;SDS011;54562;47.620;18.786;2023-02-12T03:33:43;20.60;;;10.80;;
67757;SDS011;54562;47.620;18.786;2023-02-12T03:37:01;24.40;;;11.10;;
67757;SDS011;54562;47.620;18.786;2023-02-12T03:40:17;19.50;;;9.60;;
67757;SDS011;54562;47.620;18.786;2023-02-12T03:43:32;22.90;;;11.10;;
67757;SDS011;54562;47.620;18.786;2023-02-12T03:46:53;20.60;;;11.10;;
67757;SDS011;54562;47.620;18.786;2023-02-12T03:50:12;13.10;;;6.80;;
67757;SDS011;54562;47.620;18.786;2023-02-12T03:53:22;20.20;;;9.70;;
67757;SDS011;54562;47.620;18.786;2023-02-12T03:56:34;19.10;;;9.70;;
67757;SDS011;54562;47.620;18.786;2023-02-12T03:59:46;19.70;;;10.40;;
67757;SDS011;54562;47.620;18.786;2023-02-12T04:02:55;16.50;;;9.10;;
67757;SDS011;54562;47.620;18.786;2023-02-12T04:06:04;22.40;;;11.00;;
67757;SDS011;54562;47.620;18.786;2023-02-12T04:09:23;24.70;;;12.90;;
67757;SDS011;54562;47.620;18.786;2023-02-12T04:12:39;17.70;;;9.40;;
67757;SDS011;54562;47.620;18.786;2023-02-12T04:16:11;23.40;;;11.80;;
67757;SDS011;54562;47.620;18.786;2023-02-12T04:19:32;20.30;;;10.30;;
67757;SDS011;54562;47.620;18.786;2023-02-12T04:23:00;22.60;;;12.00;;
67757;SDS011;54562;47.620;18.786;2023-02-12T04:26:25;23.10;;;11.90;;
67757;SDS011;54562;47.620;18.786;2023-02-12T04:29:44;23.00;;;12.10;;
67757;SDS011;54562;47.620;18.786;2023-02-12T04:32:58;22.40;;;11.80;;
67757;SDS011;54562;47.620;18.786;2023-02-12T04:36:10;25.00;;;12.50;;
67757;SDS011;54562;47.620;18.786;2023-02-12T04:39:24;18.60;;;10.40;;
67757;SDS011;54562;47.620;18.786;2023-02-12T04:42:43;21.00;;;11.40;;
67757;SDS011;54562;47.620;18.786;2023-02-12T04:45:52;25.00;;;12.50;;
67757;SDS011;54562;47.620;18.786;2023-02-12T04:49:02;23.30;;;13.10;;
67757;SDS011;54562;47.620;18.786;2023-02-12T04:52:10;25.30;;;13.90;;
67757;SDS011;54562;47.620;18.786;2023-02-12T04:55:18;25.70;;;13.90;;
67757;SDS011;54562;47.620;18.786;2023-02-12T04:58:26;25.50;;;14.40;;
67757;SDS011;54562;47.620;18.786;2023-02-12T05:01:36;23.30;;;13.60;;
67757;SDS011;54562;47.620;18.786;2023-02-12T05:04:44;20.90;;;12.00;;
67757;SDS011;54562;47.620;18.786;2023-02-12T05:07:53;26.10;;;13.20;;
67757;SDS011;54562;47.620;18.786;2023-02-12T05:11:06;22.60;;;12.70;;
67757;SDS011;54562;47.620;18.786;2023-02-12T05:14:14;20.30;;;11.40;;
67757;SDS011;54562;47.620;18.786;2023-02-12T05:17:23;23.10;;;12.50;;
67757;SDS011;54562;47.620;18.786;2023-02-12T05:20:31;21.00;;;12.40;;
67757;SDS011;54562;47.620;18.786;2023-02-12T05:23:40;25.10;;;13.10;;
67757;SDS011;54562;47.620;18.786;2023-02-12T05:26:49;20.10;;;11.30;;
67757;SDS011;54562;47.620;18.786;2023-02-12T05:29:57;23.10;;;12.20;;
67757;SDS011;54562;47.620;18.786;2023-02-12T05:33:06;23.40;;;13.60;;
67757;SDS011;54562;47.620;18.786;2023-02-12T05:36:15;23.30;;;12.90;;
67757;SDS011;54562;47.620;18.786;2023-02-12T05:39:25;23.30;;;12.30;;
67757;SDS011;54562;47.620;18.786;2023-02-12T05:42:32;23.80;;;13.20;;
67757;SDS011;54562;47.620;18.786;2023-02-12T05:45:40;24.50;;;13.90;;
67757;SDS011;54562;47.620;18.786;2023-02-12T05:48:48;27.30;;;14.60;;
67757;SDS011;54562;47.620;18.786;2023-02-12T05:51:57;25.30;;;14.30;;
67757;SDS011;54562;47.620;18.786;2023-02-12T05:55:05;26.60;;;13.60;;
67757;SDS011;54562;47.620;18.786;2023-02-12T05:58:14;24.30;;;13.60;;
67757;SDS011;54562;47.620;18.786;2023-02-12T06:01:24;24.60;;;14.00;;
67757;SDS011;54562;47.620;18.786;2023-02-12T06:04:33;25.70;;;13.90;;
67757;SDS011;54562;47.620;18.786;2023-02-12T06:07:41;24.80;;;14.00;;
67757;SDS011;54562;47.620;18.786;2023-02-12T06:10:49;24.00;;;12.70;;
67757;SDS011;54562;47.620;18.786;2023-02-12T06:13:57;25.00;;;13.40;;
67757;SDS011;54562;47.620;18.786;2023-02-12T06:17:06;25.20;;;13.40;;
67757;SDS011;54562;47.620;18.786;2023-02-12T06:20:14;22.30;;;12.10;;
67757;SDS011;54562;47.620;18.786;2023-02-12T06:23:24;26.30;;;13.60;;
67757;SDS011;54562;47.620;18.786;2023-02-12T06:26:32;24.20;;;13.60;;
67757;SDS011;54562;47.620;18.786;2023-02-12T06:29:41;21.80;;;12.50;;
67757;SDS011;54562;47.620;18.786;2023-02-12T06:32:51;20.50;;;11.00;;
67757;SDS011;54562;47.620;18.786;2023-02-12T06:39:11;20.50;;;11.20;;
67757;SDS011;54562;47.620;18.786;2023-02-12T06:42:20;19.60;;;11.00;;
67757;SDS011;54562;47.620;18.786;2023-02-12T06:45:28;17.20;;;10.40;;
67757;SDS011;54562;47.620;18.786;2023-02-12T06:48:36;20.90;;;10.80;;
67757;SDS011;54562;47.620;18.786;2023-02-12T06:51:44;19.20;;;10.70;;
67757;SDS011;54562;47.620;18.786;2023-02-12T06:54:52;20.50;;;10.50;;
67757;SDS011;54562;47.620;18.786;2023-02-12T06:58:00;20.20;;;11.60;;
67757;SDS011;54562;47.620;18.786;2023-02-12T07:01:13;20.70;;;11.40;;
67757;SDS011;54562;47.620;18.786;2023-02-12T07:04:22;17.30;;;9.20;;
67757;SDS011;54562;47.620;18.786;2023-02-12T07:07:30;19.70;;;10.30;;
67757;SDS011;54562;47.620;18.786;2023-02-12T07:10:38;17.80;;;10.30;;
67757;SDS011;54562;47.620;18.786;2023-02-12T07:13:46;18.70;;;10.90;;
67757;SDS011;54562;47.620;18.786;2023-02-12T07:16:54;20.10;;;11.00;;
67757;SDS011;54562;47.620;18.786;2023-02-12T07:20:03;20.30;;;10.80;;
67757;SDS011;54562;47.620;18.786;2023-02-12T07:26:21;18.40;;;10.00;;
67757;SDS011;54562;47.620;18.786;2023-02-12T07:29:28;18.20;;;10.50;;
67757;SDS011;54562;47.620;18.786;2023-02-12T07:32:37;18.10;;;10.20;;
67757;SDS011;54562;47.620;18.786;2023-02-12T07:35:45;19.50;;;10.60;;
67757;SDS011;54562;47.620;18.786;2023-02-12T07:38:54;19.00;;;10.90;;
67757;SDS011;54562;47.620;18.786;2023-02-12T07:42:02;21.40;;;11.10;;
67757;SDS011;54562;47.620;18.786;2023-02-12T07:45:13;19.00;;;11.10;;
67757;SDS011;54562;47.620;18.786;2023-02-12T07:48:21;16.70;;;9.20;;
67757;SDS011;54562;47.620;18.786;2023-02-12T07:51:29;16.00;;;8.70;;
67757;SDS011;54562;47.620;18.786;2023-02-12T07:54:37;19.10;;;10.80;;
67757;SDS011;54562;47.620;18.786;2023-02-12T07:57:48;20.60;;;10.60;;
67757;SDS011;54562;47.620;18.786;2023-02-12T08:00:57;19.80;;;10.80;;
67757;SDS011;54562;47.620;18.786;2023-02-12T08:04:07;15.20;;;8.60;;
67757;SDS011;54562;47.620;18.786;2023-02-12T08:07:17;19.10;;;10.50;;
67757;SDS011;54562;47.620;18.786;2023-02-12T08:10:25;18.20;;;10.50;;
67757;SDS011;54562;47.620;18.786;2023-02-12T08:13:37;21.00;;;10.90;;
67757;SDS011;54562;47.620;18.786;2023-02-12T08:16:46;17.40;;;9.80;;
67757;SDS011;54562;47.620;18.786;2023-02-12T08:19:55;19.10;;;10.90;;
67757;SDS011;54562;47.620;18.786;2023-02-12T08:23:04;18.00;;;9.80;;
67757;SDS011;54562;47.620;18.786;2023-02-12T08:26:13;18.10;;;10.20;;
67757;SDS011;54562;47.620;18.786;2023-02-12T08:29:24;16.40;;;9.40;;
67757;SDS011;54562;47.620;18.786;2023-02-12T08:32:34;18.60;;;9.90;;
67757;SDS011;54562;47.620;18.786;2023-02-12T08:35:43;17.20;;;9.40;;
67757;SDS011;54562;47.620;18.786;2023-02-12T08:38:51;15.20;;;7.90;;
67757;SDS011;54562;47.620;18.786;2023-02-12T08:42:03;18.50;;;9.80;;
67757;SDS011;54562;47.620;18.786;2023-02-12T08:45:11;15.80;;;8.40;;
67757;SDS011;54562;47.620;18.786;2023-02-12T08:48:20;18.50;;;10.00;;
67757;SDS011;54562;47.620;18.786;2023-02-12T08:51:31;14.80;;;8.30;;
67757;SDS011;54562;47.620;18.786;2023-02-12T08:54:40;14.40;;;7.70;;
67757;SDS011;54562;47.620;18.786;2023-02-12T08:57:48;15.40;;;8.80;;
67757;SDS011;54562;47.620;18.786;2023-02-12T09:00:58;17.00;;;8.60;;
67757;SDS011;54562;47.620;18.786;2023-02-12T09:04:06;15.00;;;8.80;;
67757;SDS011;54562;47.620;18.786;2023-02-12T09:07:16;16.00;;;8.90;;
67757;SDS011;54562;47.620;18.786;2023-02-12T09:10:24;14.20;;;7.70;;
67757;SDS011;54562;47.620;18.786;2023-02-12T09:13:33;13.90;;;8.20;;
67757;SDS011;54562;47.620;18.786;2023-02-12T09:16:42;13.20;;;7.40;;
67757;SDS011;54562;47.620;18.786;2023-02-12T09:19:50;13.40;;;7.80;;
67757;SDS011;54562;47.620;18.786;2023-02-12T09:23:00;14.20;;;8.00;;
67757;SDS011;54562;47.620;18.786;2023-02-12T09:26:11;14.10;;;7.60;;
67757;SDS011;54562;47.620;18.786;2023-02-12T09:29:20;13.70;;;7.10;;
67757;SDS011;54562;47.620;18.786;2023-02-12T09:32:29;13.50;;;7.70;;
67757;SDS011;54562;47.620;18.786;2023-02-12T09:35:37;13.90;;;7.90;;
67757;SDS011;54562;47.620;18.786;2023-02-12T09:38:45;15.30;;;8.20;;
67757;SDS011;54562;47.620;18.786;2023-02-12T09:42:31;10.70;;;6.20;;
67757;SDS011;54562;47.620;18.786;2023-02-12T09:45:57;11.70;;;6.30;;
67757;SDS011;54562;47.620;18.786;2023-02-12T09:49:11;12.90;;;7.40;;
67757;SDS011;54562;47.620;18.786;2023-02-12T09:52:26;11.50;;;7.10;;
67757;SDS011;54562;47.620;18.786;2023-02-12T09:55:36;11.90;;;6.80;;
67757;SDS011;54562;47.620;18.786;2023-02-12T09:58:48;12.40;;;7.00;;
67757;SDS011;54562;47.620;18.786;2023-02-12T10:01:58;13.20;;;7.30;;
67757;SDS011;54562;47.620;18.786;2023-02-12T10:05:09;10.80;;;6.80;;
67757;SDS011;54562;47.620;18.786;2023-02-12T10:08:34;12.50;;;6.80;;
67757;SDS011;54562;47.620;18.786;2023-02-12T10:12:14;12.10;;;6.40;;
67757;SDS011;54562;47.620;18.786;2023-02-12T10:15:38;12.60;;;6.20;;
67757;SDS011;54562;47.620;18.786;2023-02-12T10:19:14;10.20;;;5.80;;
67757;SDS011;54562;47.620;18.786;2023-02-12T10:22:37;10.80;;;5.70;;
67757;SDS011;54562;47.620;18.786;2023-02-12T10:26:19;10.70;;;5.60;;
67757;SDS011;54562;47.620;18.786;2023-02-12T10:29:35;10.10;;;5.50;;
67757;SDS011;54562;47.620;18.786;2023-02-12T10:32:47;10.60;;;5.30;;
67757;SDS011;54562;47.620;18.786;2023-02-12T10:36:03;8.50;;;4.60;;
67757;SDS011;54562;47.620;18.786;2023-02-12T10:39:22;11.70;;;4.30;;
67757;SDS011;54562;47.620;18.786;2023-02-12T10:42:37;9.30;;;4.70;;
67757;SDS011;54562;47.620;18.786;2023-02-12T10:45:47;8.30;;;4.30;;
67757;SDS011;54562;47.620;18.786;2023-02-12T10:48:57;8.20;;;4.00;;
67757;SDS011;54562;47.620;18.786;2023-02-12T10:52:13;8.00;;;4.50;;
67757;SDS011;54562;47.620;18.786;2023-02-12T10:55:29;7.60;;;4.30;;
67757;SDS011;54562;47.620;18.786;2023-02-12T10:58:40;7.80;;;3.90;;
67757;SDS011;54562;47.620;18.786;2023-02-12T11:01:56;7.50;;;3.90;;
67757;SDS011;54562;47.620;18.786;2023-02-12T11:05:23;7.70;;;4.10;;
67757;SDS011;54562;47.620;18.786;2023-02-12T11:08:36;8.70;;;4.30;;
67757;SDS011;54562;47.620;18.786;2023-02-12T11:11:44;8.00;;;3.90;;
67757;SDS011;54562;47.620;18.786;2023-02-12T11:14:56;7.20;;;3.90;;
67757;SDS011;54562;47.620;18.786;2023-02-12T11:18:07;7.90;;;4.20;;
67757;SDS011;54562;47.620;18.786;2023-02-12T11:21:26;7.70;;;4.10;;
67757;SDS011;54562;47.620;18.786;2023-02-12T11:24:36;8.40;;;3.80;;
67757;SDS011;54562;47.620;18.786;2023-02-12T11:27:44;8.10;;;4.20;;
67757;SDS011;54562;47.620;18.786;2023-02-12T11:31:22;7.60;;;3.90;;
67757;SDS011;54562;47.620;18.786;2023-02-12T11:34:32;7.30;;;3.90;;
67757;SDS011;54562;47.620;18.786;2023-02-12T11:37:42;9.10;;;4.40;;
67757;SDS011;54562;47.620;18.786;2023-02-12T11:40:55;7.80;;;4.00;;
67757;SDS011;54562;47.620;18.786;2023-02-12T11:44:12;6.80;;;3.80;;
67757;SDS011;54562;47.620;18.786;2023-02-12T11:47:28;8.70;;;3.70;;
67757;SDS011;54562;47.620;18.786;2023-02-12T11:50:39;8.50;;;3.90;;
67757;SDS011;54562;47.620;18.786;2023-02-12T11:53:55;7.60;;;3.70;;
67757;SDS011;54562;47.620;18.786;2023-02-12T11:57:06;7.90;;;3.90;;
67757;SDS011;54562;47.620;18.786;2023-02-12T12:00:18;7.10;;;3.60;;
67757;SDS011;54562;47.620;18.786;2023-02-12T12:03:35;8.00;;;3.70;;
67757;SDS011;54562;47.620;18.786;2023-02-12T12:06:52;8.90;;;3.70;;
67757;SDS011;54562;47.620;18.786;2023-02-12T12:10:11;6.90;;;3.70;;
67757;SDS011;54562;47.620;18.786;2023-02-12T12:13:26;8.00;;;3.80;;
67757;SDS011;54562;47.620;18.786;2023-02-12T12:16:40;8.20;;;3.80;;
67757;SDS011;54562;47.620;18.786;2023-02-12T12:20:14;7.70;;;3.70;;
67757;SDS011;54562;47.620;18.786;2023-02-12T12:23:33;7.50;;;3.30;;
67757;SDS011;54562;47.620;18.786;2023-02-12T12:26:48;7.00;;;3.40;;
67757;SDS011;54562;47.620;18.786;2023-02-12T12:30:10;7.50;;;3.70;;
67757;SDS011;54562;47.620;18.786;2023-02-12T12:33:41;6.40;;;3.30;;
67757;SDS011;54562;47.620;18.786;2023-02-12T12:37:16;7.40;;;4.00;;
67757;SDS011;54562;47.620;18.786;2023-02-12T12:40:45;6.50;;;3.50;;
67757;SDS011;54562;47.620;18.786;2023-02-12T12:44:14;11.90;;;3.90;;
67757;SDS011;54562;47.620;18.786;2023-02-12T12:47:39;7.00;;;3.80;;
67757;SDS011;54562;47.620;18.786;2023-02-12T12:51:06;6.60;;;3.40;;
67757;SDS011;54562;47.620;18.786;2023-02-12T12:54:30;6.90;;;3.30;;
67757;SDS011;54562;47.620;18.786;2023-02-12T12:57:50;6.00;;;3.00;;
67757;SDS011;54562;47.620;18.786;2023-02-12T13:01:36;6.40;;;3.10;;
67757;SDS011;54562;47.620;18.786;2023-02-12T13:09:12;6.50;;;3.10;;
67757;SDS011;54562;47.620;18.786;2023-02-12T13:12:35;7.10;;;3.30;;
67757;SDS011;54562;47.620;18.786;2023-02-12T13:16:10;6.60;;;3.20;;
67757;SDS011;54562;47.620;18.786;2023-02-12T13:22:42;7.50;;;3.60;;
67757;SDS011;54562;47.620;18.786;2023-02-12T13:26:02;6.70;;;3.20;;
67757;SDS011;54562;47.620;18.786;2023-02-12T13:29:18;6.20;;;2.90;;
67757;SDS011;54562;47.620;18.786;2023-02-12T13:32:31;8.60;;;3.60;;
67757;SDS011;54562;47.620;18.786;2023-02-12T13:35:47;7.70;;;3.60;;
67757;SDS011;54562;47.620;18.786;2023-02-12T13:39:02;6.40;;;3.30;;
67757;SDS011;54562;47.620;18.786;2023-02-12T13:42:27;9.30;;;3.80;;
67757;SDS011;54562;47.620;18.786;2023-02-12T13:45:50;7.20;;;3.20;;
67757;SDS011;54562;47.620;18.786;2023-02-12T13:49:12;6.30;;;3.10;;
67757;SDS011;54562;47.620;18.786;2023-02-12T13:52:34;6.10;;;3.00;;
67757;SDS011;54562;47.620;18.786;2023-02-12T13:56:00;6.40;;;2.70;;
67757;SDS011;54562;47.620;18.786;2023-02-12T13:59:47;5.60;;;2.40;;
67757;SDS011;54562;47.620;18.786;2023-02-12T14:02:57;8.00;;;3.00;;
67757;SDS011;54562;47.620;18.786;2023-02-12T14:06:16;7.00;;;2.90;;
67757;SDS011;54562;47.620;18.786;2023-02-12T14:09:35;6.20;;;3.00;;
67757;SDS011;54562;47.620;18.786;2023-02-12T14:12:45;7.30;;;3.00;;
67757;SDS011;54562;47.620;18.786;2023-02-12T14:15:55;7.50;;;3.00;;
67757;SDS011;54562;47.620;18.786;2023-02-12T14:19:38;6.40;;;2.60;;
67757;SDS011;54562;47.620;18.786;2023-02-12T14:23:22;37.10;;;4.80;;
67757;SDS011;54562;47.620;18.786;2023-02-12T14:26:37;6.60;;;2.80;;
67757;SDS011;54562;47.620;18.786;2023-02-12T14:30:01;5.70;;;2.50;;
67757;SDS011;54562;47.620;18.786;2023-02-12T14:33:28;7.20;;;3.00;;
67757;SDS011;54562;47.620;18.786;2023-02-12T14:36:40;5.80;;;2.80;;
67757;SDS011;54562;47.620;18.786;2023-02-12T14:39:49;6.60;;;2.60;;
67757;SDS011;54562;47.620;18.786;2023-02-12T14:43:30;9.20;;;3.10;;
67757;SDS011;54562;47.620;18.786;2023-02-12T14:47:03;6.00;;;2.80;;
67757;SDS011;54562;47.620;18.786;2023-02-12T14:50:24;6.20;;;2.70;;
67757;SDS011;54562;47.620;18.786;2023-02-12T14:53:35;14.00;;;3.10;;
67757;SDS011;54562;47.620;18.786;2023-02-12T14:56:47;7.30;;;3.40;;
67757;SDS011;54562;47.620;18.786;2023-02-12T15:00:01;7.30;;;3.10;;
67757;SDS011;54562;47.620;18.786;2023-02-12T15:03:31;6.50;;;3.00;;
67757;SDS011;54562;47.620;18.786;2023-02-12T15:06:52;7.20;;;3.00;;
67757;SDS011;54562;47.620;18.786;2023-02-12T15:10:10;7.00;;;3.20;;
67757;SDS011;54562;47.620;18.786;2023-02-12T15:13:26;7.20;;;3.10;;
67757;SDS011;54562;47.620;18.786;2023-02-12T15:16:46;7.50;;;3.40;;
67757;SDS011;54562;47.620;18.786;2023-02-12T15:20:00;7.80;;;4.00;;
67757;SDS011;54562;47.620;18.786;2023-02-12T15:23:33;7.20;;;3.40;;
67757;SDS011;54562;47.620;18.786;2023-02-12T15:26:48;7.70;;;3.30;;
67757;SDS011;54562;47.620;18.786;2023-02-12T15:29:58;7.60;;;3.70;;
67757;SDS011;54562;47.620;18.786;2023-02-12T15:33:08;7.10;;;3.00;;
67757;SDS011;54562;47.620;18.786;2023-02-12T15:36:24;7.80;;;3.50;;
67757;SDS011;54562;47.620;18.786;2023-02-12T15:39:38;7.20;;;3.30;;
67757;SDS011;54562;47.620;18.786;2023-02-12T15:42:55;7.10;;;3.30;;
67757;SDS011;54562;47.620;18.786;2023-02-12T15:46:05;7.70;;;3.30;;
67757;SDS011;54562;47.620;18.786;2023-02-12T15:49:24;7.30;;;3.60;;
67757;SDS011;54562;47.620;18.786;2023-02-12T15:52:38;8.50;;;3.90;;
67757;SDS011;54562;47.620;18.786;2023-02-12T15:55:48;9.70;;;3.90;;
67757;SDS011;54562;47.620;18.786;2023-02-12T15:59:00;8.10;;;3.70;;
67757;SDS011;54562;47.620;18.786;2023-02-12T16:02:19;9.40;;;3.80;;
67757;SDS011;54562;47.620;18.786;2023-02-12T16:05:32;8.80;;;4.20;;
67757;SDS011;54562;47.620;18.786;2023-02-12T16:08:42;8.10;;;3.60;;
67757;SDS011;54562;47.620;18.786;2023-02-12T16:11:52;7.60;;;3.70;;
67757;SDS011;54562;47.620;18.786;2023-02-12T16:15:02;7.70;;;3.60;;
67757;SDS011;54562;47.620;18.786;2023-02-12T16:18:23;11.40;;;3.70;;
67757;SDS011;54562;47.620;18.786;2023-02-12T16:21:32;8.30;;;4.00;;
67757;SDS011;54562;47.620;18.786;2023-02-12T16:24:46;7.10;;;3.50;;
67757;SDS011;54562;47.620;18.786;2023-02-12T16:28:01;7.50;;;3.90;;
67757;SDS011;54562;47.620;18.786;2023-02-12T16:31:13;8.00;;;3.50;;
67757;SDS011;54562;47.620;18.786;2023-02-12T16:34:35;8.20;;;4.20;;
67757;SDS011;54562;47.620;18.786;2023-02-12T16:37:46;9.40;;;4.10;;
67757;SDS011;54562;47.620;18.786;2023-02-12T16:41:18;7.20;;;3.70;;
67757;SDS011;54562;47.620;18.786;2023-02-12T16:44:29;8.40;;;4.10;;
67757;SDS011;54562;47.620;18.786;2023-02-12T16:47:39;8.70;;;4.30;;
67757;SDS011;54562;47.620;18.786;2023-02-12T16:50:55;9.20;;;4.80;;
67757;SDS011;54562;47.620;18.786;2023-02-12T16:54:29;10.20;;;4.40;;
67757;SDS011;54562;47.620;18.786;2023-02-12T16:57:40;10.70;;;4.60;;
67757;SDS011;54562;47.620;18.786;2023-02-12T17:00:50;13.00;;;5.80;;
67757;SDS011;54562;47.620;18.786;2023-02-12T17:04:03;11.70;;;5.90;;
67757;SDS011;54562;47.620;18.786;2023-02-12T17:07:19;11.60;;;5.20;;
67757;SDS011;54562;47.620;18.786;2023-02-12T17:10:32;11.20;;;6.10;;
67757;SDS011;54562;47.620;18.786;2023-02-12T17:13:41;14.50;;;7.20;;
67757;SDS011;54562;47.620;18.786;2023-02-12T17:16:50;10.00;;;5.20;;
67757;SDS011;54562;47.620;18.786;2023-02-12T17:19:58;10.40;;;5.30;;
67757;SDS011;54562;47.620;18.786;2023-02-12T17:23:08;10.90;;;5.10;;
67757;SDS011;54562;47.620;18.786;2023-02-12T17:26:18;9.60;;;4.80;;
67757;SDS011;54562;47.620;18.786;2023-02-12T17:29:29;10.50;;;5.00;;
67757;SDS011;54562;47.620;18.786;2023-02-12T17:32:38;12.40;;;6.00;;
67757;SDS011;54562;47.620;18.786;2023-02-12T17:35:46;14.40;;;7.50;;
67757;SDS011;54562;47.620;18.786;2023-02-12T17:38:55;17.20;;;6.40;;
67757;SDS011;54562;47.620;18.786;2023-02-12T17:42:04;11.20;;;5.50;;
67757;SDS011;54562;47.620;18.786;2023-02-12T17:45:12;11.30;;;5.60;;
67757;SDS011;54562;47.620;18.786;2023-02-12T17:48:21;12.50;;;6.60;;
67757;SDS011;54562;47.620;18.786;2023-02-12T17:51:29;11.60;;;6.10;;
67757;SDS011;54562;47.620;18.786;2023-02-12T17:54:38;10.60;;;5.70;;
67757;SDS011;54562;47.620;18.786;2023-02-12T17:57:52;12.50;;;6.60;;
67757;SDS011;54562;47.620;18.786;2023-02-12T18:01:04;13.70;;;6.70;;
67757;SDS011;54562;47.620;18.786;2023-02-12T18:04:14;11.60;;;6.20;;
67757;SDS011;54562;47.620;18.786;2023-02-12T18:07:24;14.60;;;6.20;;
67757;SDS011;54562;47.620;18.786;2023-02-12T18:13:39;11.60;;;5.10;;
67757;SDS011;54562;47.620;18.786;2023-02-12T18:16:47;13.30;;;6.70;;
67757;SDS011;54562;47.620;18.786;2023-02-12T18:19:56;11.80;;;5.60;;
67757;SDS011;54562;47.620;18.786;2023-02-12T18:23:04;11.80;;;5.40;;
67757;SDS011;54562;47.620;18.786;2023-02-12T18:26:14;13.50;;;5.60;;
67757;SDS011;54562;47.620;18.786;2023-02-12T18:29:23;13.20;;;6.50;;
67757;SDS011;54562;47.620;18.786;2023-02-12T18:32:31;13.70;;;6.00;;
67757;SDS011;54562;47.620;18.786;2023-02-12T18:35:40;12.10;;;5.60;;
67757;SDS011;54562;47.620;18.786;2023-02-12T18:38:49;13.40;;;6.30;;
67757;SDS011;54562;47.620;18.786;2023-02-12T18:41:58;15.90;;;7.20;;
67757;SDS011;54562;47.620;18.786;2023-02-12T18:45:07;16.40;;;7.40;;
67757;SDS011;54562;47.620;18.786;2023-02-12T18:48:15;16.50;;;7.50;;
67757;SDS011;54562;47.620;18.786;2023-02-12T18:51:25;15.90;;;7.60;;
67757;SDS011;54562;47.620;18.786;2023-02-12T18:54:34;17.60;;;7.60;;
67757;SDS011;54562;47.620;18.786;2023-02-12T18:57:43;16.20;;;7.50;;
67757;SDS011;54562;47.620;18.786;2023-02-12T19:00:51;15.80;;;7.80;;
67757;SDS011;54562;47.620;18.786;2023-02-12T19:04:01;13.50;;;6.90;;
67757;SDS011;54562;47.620;18.786;2023-02-12T19:07:11;15.50;;;7.00;;
67757;SDS011;54562;47.620;18.786;2023-02-12T19:10:20;14.90;;;7.50;;
67757;SDS011;54562;47.620;18.786;2023-02-12T19:13:28;15.00;;;7.50;;